Terminal Aerodrome Forecast
Issued by NWS Paducah, KY

Home | Current Version | Previous Version | Text Only | Print | Product List | Glossary Off
Versions: 1 2 3 4 5 6 7 8 9 10 11 12 13

000
FTUS43 KPAH 282300
TAFPAH
TAF
KPAH 282330Z 2900/2924 35010KT P6SM BKN080
     FM290100 35003KT P6SM SKC
     FM291600 34005KT P6SM SCT070=

USA.gov is the U.S. government's official web portal to all federal, state and local government web resources and services.